sensor_id;sensor_type;location;lat;lon;timestamp;P1;durP1;ratioP1;P2;durP2;ratioP2
41201;SDS011;26936;50.524;8.684;2023-03-01T00:01:10;16.40;;;8.40;;
41201;SDS011;26936;50.524;8.684;2023-03-01T00:03:36;12.68;;;8.20;;
41201;SDS011;26936;50.524;8.684;2023-03-01T00:06:02;15.18;;;8.63;;
41201;SDS011;26936;50.524;8.684;2023-03-01T00:08:28;16.73;;;8.07;;
41201;SDS011;26936;50.524;8.684;2023-03-01T00:13:26;16.75;;;8.75;;
41201;SDS011;26936;50.524;8.684;2023-03-01T00:15:51;15.93;;;9.27;;
41201;SDS011;26936;50.524;8.684;2023-03-01T00:18:17;15.90;;;8.90;;
41201;SDS011;26936;50.524;8.684;2023-03-01T00:20:48;15.07;;;8.77;;
41201;SDS011;26936;50.524;8.684;2023-03-01T00:23:14;15.90;;;9.33;;
41201;SDS011;26936;50.524;8.684;2023-03-01T00:25:43;17.47;;;8.33;;
41201;SDS011;26936;50.524;8.684;2023-03-01T00:28:08;15.73;;;7.90;;
41201;SDS011;26936;50.524;8.684;2023-03-01T00:30:34;16.20;;;8.57;;
41201;SDS011;26936;50.524;8.684;2023-03-01T00:32:59;13.35;;;8.07;;
41201;SDS011;26936;50.524;8.684;2023-03-01T00:35:24;17.80;;;8.55;;
41201;SDS011;26936;50.524;8.684;2023-03-01T00:37:50;14.25;;;8.40;;
41201;SDS011;26936;50.524;8.684;2023-03-01T00:40:22;18.80;;;9.03;;
41201;SDS011;26936;50.524;8.684;2023-03-01T00:42:51;15.55;;;8.95;;
41201;SDS011;26936;50.524;8.684;2023-03-01T00:45:16;16.27;;;9.00;;
41201;SDS011;26936;50.524;8.684;2023-03-01T00:47:42;15.95;;;8.70;;
41201;SDS011;26936;50.524;8.684;2023-03-01T00:50:08;16.42;;;9.70;;
41201;SDS011;26936;50.524;8.684;2023-03-01T00:52:34;17.17;;;8.85;;
41201;SDS011;26936;50.524;8.684;2023-03-01T00:54:59;16.73;;;8.95;;
41201;SDS011;26936;50.524;8.684;2023-03-01T00:57:25;16.48;;;9.20;;
41201;SDS011;26936;50.524;8.684;2023-03-01T00:59:50;18.30;;;9.77;;
41201;SDS011;26936;50.524;8.684;2023-03-01T01:02:17;14.32;;;8.38;;
41201;SDS011;26936;50.524;8.684;2023-03-01T01:04:43;16.98;;;9.85;;
41201;SDS011;26936;50.524;8.684;2023-03-01T01:07:08;15.05;;;9.20;;
41201;SDS011;26936;50.524;8.684;2023-03-01T01:09:33;17.23;;;9.98;;
41201;SDS011;26936;50.524;8.684;2023-03-01T01:11:59;18.08;;;9.82;;
41201;SDS011;26936;50.524;8.684;2023-03-01T01:14:24;15.27;;;9.43;;
41201;SDS011;26936;50.524;8.684;2023-03-01T01:16:49;16.85;;;9.73;;
41201;SDS011;26936;50.524;8.684;2023-03-01T01:19:15;18.73;;;9.43;;
41201;SDS011;26936;50.524;8.684;2023-03-01T01:21:40;21.30;;;10.10;;
41201;SDS011;26936;50.524;8.684;2023-03-01T01:24:08;17.27;;;9.50;;
41201;SDS011;26936;50.524;8.684;2023-03-01T01:26:34;20.38;;;10.13;;
41201;SDS011;26936;50.524;8.684;2023-03-01T01:28:59;19.55;;;9.63;;
41201;SDS011;26936;50.524;8.684;2023-03-01T01:31:26;16.67;;;9.55;;
41201;SDS011;26936;50.524;8.684;2023-03-01T01:33:53;16.65;;;9.38;;
41201;SDS011;26936;50.524;8.684;2023-03-01T01:36:19;16.98;;;8.85;;
41201;SDS011;26936;50.524;8.684;2023-03-01T01:38:45;18.88;;;9.15;;
41201;SDS011;26936;50.524;8.684;2023-03-01T01:41:10;16.92;;;9.63;;
41201;SDS011;26936;50.524;8.684;2023-03-01T01:43:38;17.73;;;9.50;;
41201;SDS011;26936;50.524;8.684;2023-03-01T01:46:28;16.70;;;10.13;;
41201;SDS011;26936;50.524;8.684;2023-03-01T01:51:37;17.23;;;9.70;;
41201;SDS011;26936;50.524;8.684;2023-03-01T01:54:06;19.23;;;9.50;;
41201;SDS011;26936;50.524;8.684;2023-03-01T01:56:36;18.27;;;9.00;;
41201;SDS011;26936;50.524;8.684;2023-03-01T01:59:04;16.00;;;9.73;;
41201;SDS011;26936;50.524;8.684;2023-03-01T02:01:30;16.15;;;9.90;;
41201;SDS011;26936;50.524;8.684;2023-03-01T02:03:55;18.88;;;9.25;;
41201;SDS011;26936;50.524;8.684;2023-03-01T02:06:34;19.40;;;10.00;;
41201;SDS011;26936;50.524;8.684;2023-03-01T02:09:15;21.35;;;10.57;;
41201;SDS011;26936;50.524;8.684;2023-03-01T02:11:43;17.55;;;9.85;;
41201;SDS011;26936;50.524;8.684;2023-03-01T02:14:09;16.88;;;9.60;;
41201;SDS011;26936;50.524;8.684;2023-03-01T02:16:34;20.20;;;10.63;;
41201;SDS011;26936;50.524;8.684;2023-03-01T02:19:00;20.25;;;10.88;;
41201;SDS011;26936;50.524;8.684;2023-03-01T02:21:46;18.33;;;10.07;;
41201;SDS011;26936;50.524;8.684;2023-03-01T02:27:10;20.50;;;10.93;;
41201;SDS011;26936;50.524;8.684;2023-03-01T02:29:36;21.30;;;10.00;;
41201;SDS011;26936;50.524;8.684;2023-03-01T02:32:02;19.98;;;10.80;;
41201;SDS011;26936;50.524;8.684;2023-03-01T02:34:28;20.85;;;11.57;;
41201;SDS011;26936;50.524;8.684;2023-03-01T02:36:59;20.50;;;11.10;;
41201;SDS011;26936;50.524;8.684;2023-03-01T02:39:46;20.02;;;10.35;;
41201;SDS011;26936;50.524;8.684;2023-03-01T02:42:14;20.23;;;10.80;;
41201;SDS011;26936;50.524;8.684;2023-03-01T02:44:43;19.80;;;10.45;;
41201;SDS011;26936;50.524;8.684;2023-03-01T02:47:09;20.42;;;10.82;;
41201;SDS011;26936;50.524;8.684;2023-03-01T02:49:36;22.30;;;11.32;;
41201;SDS011;26936;50.524;8.684;2023-03-01T02:55:01;21.50;;;11.27;;
41201;SDS011;26936;50.524;8.684;2023-03-01T02:57:30;18.38;;;10.57;;
41201;SDS011;26936;50.524;8.684;2023-03-01T02:59:59;19.75;;;11.10;;
41201;SDS011;26936;50.524;8.684;2023-03-01T03:02:32;22.65;;;10.82;;
41201;SDS011;26936;50.524;8.684;2023-03-01T03:05:03;22.15;;;10.90;;
41201;SDS011;26936;50.524;8.684;2023-03-01T03:07:34;20.48;;;11.35;;
41201;SDS011;26936;50.524;8.684;2023-03-01T03:10:01;20.98;;;10.50;;
41201;SDS011;26936;50.524;8.684;2023-03-01T03:12:28;18.38;;;10.60;;
41201;SDS011;26936;50.524;8.684;2023-03-01T03:14:53;21.50;;;11.27;;
41201;SDS011;26936;50.524;8.684;2023-03-01T03:17:19;23.23;;;11.75;;
41201;SDS011;26936;50.524;8.684;2023-03-01T03:19:44;20.73;;;10.70;;
41201;SDS011;26936;50.524;8.684;2023-03-01T03:22:10;22.88;;;11.15;;
41201;SDS011;26936;50.524;8.684;2023-03-01T03:24:36;25.10;;;11.70;;
41201;SDS011;26936;50.524;8.684;2023-03-01T03:27:03;22.92;;;11.80;;
41201;SDS011;26936;50.524;8.684;2023-03-01T03:29:29;22.42;;;10.70;;
41201;SDS011;26936;50.524;8.684;2023-03-01T03:31:54;23.13;;;11.95;;
41201;SDS011;26936;50.524;8.684;2023-03-01T03:34:19;21.57;;;11.83;;
41201;SDS011;26936;50.524;8.684;2023-03-01T03:36:44;18.98;;;10.68;;
41201;SDS011;26936;50.524;8.684;2023-03-01T03:39:10;22.30;;;11.63;;
41201;SDS011;26936;50.524;8.684;2023-03-01T03:41:35;24.20;;;12.75;;
41201;SDS011;26936;50.524;8.684;2023-03-01T03:44:00;24.10;;;11.77;;
41201;SDS011;26936;50.524;8.684;2023-03-01T03:46:25;22.05;;;11.77;;
41201;SDS011;26936;50.524;8.684;2023-03-01T03:48:51;22.23;;;12.05;;
41201;SDS011;26936;50.524;8.684;2023-03-01T03:51:17;23.30;;;11.88;;
41201;SDS011;26936;50.524;8.684;2023-03-01T03:53:43;29.27;;;12.63;;
41201;SDS011;26936;50.524;8.684;2023-03-01T03:56:10;21.88;;;11.63;;
41201;SDS011;26936;50.524;8.684;2023-03-01T03:58:36;22.65;;;11.95;;
41201;SDS011;26936;50.524;8.684;2023-03-01T04:01:02;23.65;;;11.70;;
41201;SDS011;26936;50.524;8.684;2023-03-01T04:03:28;21.83;;;11.60;;
41201;SDS011;26936;50.524;8.684;2023-03-01T04:05:56;21.83;;;11.55;;
41201;SDS011;26936;50.524;8.684;2023-03-01T04:08:23;23.65;;;12.30;;
41201;SDS011;26936;50.524;8.684;2023-03-01T04:10:50;22.52;;;11.18;;
41201;SDS011;26936;50.524;8.684;2023-03-01T04:13:18;21.80;;;11.43;;
41201;SDS011;26936;50.524;8.684;2023-03-01T04:15:54;20.33;;;10.88;;
41201;SDS011;26936;50.524;8.684;2023-03-01T04:18:21;20.13;;;10.63;;
41201;SDS011;26936;50.524;8.684;2023-03-01T04:20:48;24.52;;;11.07;;
41201;SDS011;26936;50.524;8.684;2023-03-01T04:23:18;22.20;;;11.40;;
41201;SDS011;26936;50.524;8.684;2023-03-01T04:25:51;24.08;;;12.07;;
41201;SDS011;26936;50.524;8.684;2023-03-01T04:28:24;22.13;;;12.00;;
41201;SDS011;26936;50.524;8.684;2023-03-01T04:30:53;20.63;;;11.00;;
41201;SDS011;26936;50.524;8.684;2023-03-01T04:33:19;21.73;;;12.52;;
41201;SDS011;26936;50.524;8.684;2023-03-01T04:35:45;22.23;;;11.50;;
41201;SDS011;26936;50.524;8.684;2023-03-01T04:38:10;22.80;;;11.40;;
41201;SDS011;26936;50.524;8.684;2023-03-01T04:40:36;22.40;;;11.77;;
41201;SDS011;26936;50.524;8.684;2023-03-01T04:43:02;22.67;;;11.43;;
41201;SDS011;26936;50.524;8.684;2023-03-01T04:45:28;23.00;;;11.18;;
41201;SDS011;26936;50.524;8.684;2023-03-01T04:47:54;22.13;;;12.05;;
41201;SDS011;26936;50.524;8.684;2023-03-01T04:50:20;25.65;;;11.82;;
41201;SDS011;26936;50.524;8.684;2023-03-01T04:52:46;22.30;;;11.75;;
41201;SDS011;26936;50.524;8.684;2023-03-01T04:55:12;23.42;;;11.68;;
41201;SDS011;26936;50.524;8.684;2023-03-01T04:57:38;21.92;;;11.73;;
41201;SDS011;26936;50.524;8.684;2023-03-01T05:00:04;25.58;;;11.52;;
41201;SDS011;26936;50.524;8.684;2023-03-01T05:02:51;21.10;;;11.65;;
41201;SDS011;26936;50.524;8.684;2023-03-01T05:07:50;23.10;;;11.38;;
41201;SDS011;26936;50.524;8.684;2023-03-01T05:10:16;23.05;;;12.07;;
41201;SDS011;26936;50.524;8.684;2023-03-01T05:12:42;21.50;;;11.38;;
41201;SDS011;26936;50.524;8.684;2023-03-01T05:15:07;23.50;;;11.90;;
41201;SDS011;26936;50.524;8.684;2023-03-01T05:17:33;20.45;;;10.95;;
41201;SDS011;26936;50.524;8.684;2023-03-01T05:19:59;24.58;;;12.50;;
41201;SDS011;26936;50.524;8.684;2023-03-01T05:22:24;21.60;;;12.02;;
41201;SDS011;26936;50.524;8.684;2023-03-01T05:24:50;23.50;;;12.05;;
41201;SDS011;26936;50.524;8.684;2023-03-01T05:27:15;22.23;;;11.27;;
41201;SDS011;26936;50.524;8.684;2023-03-01T05:29:40;20.45;;;10.45;;
41201;SDS011;26936;50.524;8.684;2023-03-01T05:32:05;24.55;;;12.20;;
41201;SDS011;26936;50.524;8.684;2023-03-01T05:34:32;22.48;;;12.15;;
41201;SDS011;26936;50.524;8.684;2023-03-01T05:37:00;21.80;;;12.15;;
41201;SDS011;26936;50.524;8.684;2023-03-01T05:39:27;21.45;;;11.65;;
41201;SDS011;26936;50.524;8.684;2023-03-01T05:41:54;25.08;;;11.68;;
41201;SDS011;26936;50.524;8.684;2023-03-01T05:44:24;20.67;;;11.23;;
41201;SDS011;26936;50.524;8.684;2023-03-01T05:46:50;25.13;;;12.02;;
41201;SDS011;26936;50.524;8.684;2023-03-01T05:49:16;24.40;;;11.50;;
41201;SDS011;26936;50.524;8.684;2023-03-01T05:51:42;21.13;;;11.82;;
41201;SDS011;26936;50.524;8.684;2023-03-01T05:54:10;25.02;;;12.18;;
41201;SDS011;26936;50.524;8.684;2023-03-01T05:56:36;22.20;;;11.65;;
41201;SDS011;26936;50.524;8.684;2023-03-01T05:59:02;23.02;;;12.18;;
41201;SDS011;26936;50.524;8.684;2023-03-01T06:01:29;23.67;;;12.23;;
41201;SDS011;26936;50.524;8.684;2023-03-01T06:03:55;21.75;;;12.07;;
41201;SDS011;26936;50.524;8.684;2023-03-01T06:06:21;25.08;;;12.35;;
41201;SDS011;26936;50.524;8.684;2023-03-01T06:08:47;25.02;;;12.65;;
41201;SDS011;26936;50.524;8.684;2023-03-01T06:11:12;23.52;;;13.00;;
41201;SDS011;26936;50.524;8.684;2023-03-01T06:13:37;25.02;;;12.95;;
41201;SDS011;26936;50.524;8.684;2023-03-01T06:16:06;22.05;;;11.90;;
41201;SDS011;26936;50.524;8.684;2023-03-01T06:18:31;22.60;;;12.10;;
41201;SDS011;26936;50.524;8.684;2023-03-01T06:20:57;23.65;;;11.35;;
41201;SDS011;26936;50.524;8.684;2023-03-01T06:23:22;24.33;;;11.85;;
41201;SDS011;26936;50.524;8.684;2023-03-01T06:25:48;23.73;;;12.27;;
41201;SDS011;26936;50.524;8.684;2023-03-01T06:28:14;24.48;;;11.93;;
41201;SDS011;26936;50.524;8.684;2023-03-01T06:30:39;24.52;;;12.85;;
41201;SDS011;26936;50.524;8.684;2023-03-01T06:33:04;25.15;;;12.93;;
41201;SDS011;26936;50.524;8.684;2023-03-01T06:35:30;24.47;;;12.63;;
41201;SDS011;26936;50.524;8.684;2023-03-01T06:37:56;24.60;;;12.38;;
41201;SDS011;26936;50.524;8.684;2023-03-01T06:40:22;22.70;;;12.25;;
41201;SDS011;26936;50.524;8.684;2023-03-01T06:42:49;27.75;;;12.95;;
41201;SDS011;26936;50.524;8.684;2023-03-01T06:45:15;24.77;;;12.63;;
41201;SDS011;26936;50.524;8.684;2023-03-01T06:47:42;28.25;;;12.82;;
41201;SDS011;26936;50.524;8.684;2023-03-01T06:50:08;23.95;;;12.27;;
41201;SDS011;26936;50.524;8.684;2023-03-01T06:52:34;24.42;;;12.48;;
41201;SDS011;26936;50.524;8.684;2023-03-01T06:54:59;24.25;;;12.25;;
41201;SDS011;26936;50.524;8.684;2023-03-01T06:57:25;22.30;;;11.52;;
41201;SDS011;26936;50.524;8.684;2023-03-01T06:59:50;24.15;;;12.32;;
41201;SDS011;26936;50.524;8.684;2023-03-01T07:02:16;24.38;;;12.10;;
41201;SDS011;26936;50.524;8.684;2023-03-01T07:04:41;20.05;;;12.07;;
41201;SDS011;26936;50.524;8.684;2023-03-01T07:07:07;24.33;;;12.45;;
41201;SDS011;26936;50.524;8.684;2023-03-01T07:09:33;20.85;;;11.95;;
41201;SDS011;26936;50.524;8.684;2023-03-01T07:11:58;22.17;;;11.85;;
41201;SDS011;26936;50.524;8.684;2023-03-01T07:14:24;23.48;;;12.10;;
41201;SDS011;26936;50.524;8.684;2023-03-01T07:16:50;21.40;;;11.32;;
41201;SDS011;26936;50.524;8.684;2023-03-01T07:19:16;21.20;;;11.70;;
41201;SDS011;26936;50.524;8.684;2023-03-01T07:21:42;23.95;;;11.50;;
41201;SDS011;26936;50.524;8.684;2023-03-01T07:24:07;19.83;;;11.48;;
41201;SDS011;26936;50.524;8.684;2023-03-01T07:26:32;25.88;;;12.30;;
41201;SDS011;26936;50.524;8.684;2023-03-01T07:28:58;21.20;;;10.68;;
41201;SDS011;26936;50.524;8.684;2023-03-01T07:31:24;21.00;;;11.60;;
41201;SDS011;26936;50.524;8.684;2023-03-01T07:33:52;21.20;;;11.55;;
41201;SDS011;26936;50.524;8.684;2023-03-01T07:36:18;20.17;;;12.02;;
41201;SDS011;26936;50.524;8.684;2023-03-01T07:38:43;19.37;;;11.07;;
41201;SDS011;26936;50.524;8.684;2023-03-01T07:41:08;20.92;;;11.48;;
41201;SDS011;26936;50.524;8.684;2023-03-01T07:43:33;21.58;;;11.95;;
41201;SDS011;26936;50.524;8.684;2023-03-01T07:46:00;21.15;;;12.43;;
41201;SDS011;26936;50.524;8.684;2023-03-01T07:48:26;22.58;;;12.32;;
41201;SDS011;26936;50.524;8.684;2023-03-01T07:50:52;22.02;;;11.45;;
41201;SDS011;26936;50.524;8.684;2023-03-01T07:53:18;23.00;;;12.60;;
41201;SDS011;26936;50.524;8.684;2023-03-01T07:55:43;22.67;;;11.93;;
41201;SDS011;26936;50.524;8.684;2023-03-01T07:58:08;25.27;;;11.52;;
41201;SDS011;26936;50.524;8.684;2023-03-01T08:00:33;23.35;;;11.82;;
41201;SDS011;26936;50.524;8.684;2023-03-01T08:03:02;19.77;;;11.32;;
41201;SDS011;26936;50.524;8.684;2023-03-01T08:05:28;21.00;;;11.50;;
41201;SDS011;26936;50.524;8.684;2023-03-01T08:07:53;21.58;;;11.63;;
41201;SDS011;26936;50.524;8.684;2023-03-01T08:10:19;22.98;;;11.90;;
41201;SDS011;26936;50.524;8.684;2023-03-01T08:12:45;20.95;;;11.50;;
41201;SDS011;26936;50.524;8.684;2023-03-01T08:15:10;18.05;;;10.45;;
41201;SDS011;26936;50.524;8.684;2023-03-01T08:17:36;22.20;;;11.65;;
41201;SDS011;26936;50.524;8.684;2023-03-01T08:20:01;21.23;;;11.20;;
41201;SDS011;26936;50.524;8.684;2023-03-01T08:22:29;19.65;;;11.40;;
41201;SDS011;26936;50.524;8.684;2023-03-01T08:24:54;30.23;;;11.83;;
41201;SDS011;26936;50.524;8.684;2023-03-01T08:27:20;16.73;;;10.38;;
41201;SDS011;26936;50.524;8.684;2023-03-01T08:29:46;19.08;;;10.45;;
41201;SDS011;26936;50.524;8.684;2023-03-01T08:32:11;20.83;;;10.37;;
41201;SDS011;26936;50.524;8.684;2023-03-01T08:34:36;20.60;;;10.47;;
41201;SDS011;26936;50.524;8.684;2023-03-01T08:37:02;18.17;;;10.10;;
41201;SDS011;26936;50.524;8.684;2023-03-01T08:39:27;16.50;;;10.13;;
41201;SDS011;26936;50.524;8.684;2023-03-01T08:41:52;18.88;;;11.40;;
41201;SDS011;26936;50.524;8.684;2023-03-01T08:44:18;17.73;;;9.60;;
41201;SDS011;26936;50.524;8.684;2023-03-01T08:46:43;18.52;;;10.27;;
41201;SDS011;26936;50.524;8.684;2023-03-01T08:49:14;17.88;;;10.05;;
41201;SDS011;26936;50.524;8.684;2023-03-01T08:51:42;17.00;;;9.73;;
41201;SDS011;26936;50.524;8.684;2023-03-01T08:54:15;18.88;;;10.45;;
41201;SDS011;26936;50.524;8.684;2023-03-01T08:56:43;22.80;;;10.27;;
41201;SDS011;26936;50.524;8.684;2023-03-01T08:59:09;18.05;;;9.88;;
41201;SDS011;26936;50.524;8.684;2023-03-01T09:01:35;18.00;;;10.23;;
41201;SDS011;26936;50.524;8.684;2023-03-01T09:04:02;16.42;;;9.63;;
41201;SDS011;26936;50.524;8.684;2023-03-01T09:06:29;15.07;;;9.20;;
41201;SDS011;26936;50.524;8.684;2023-03-01T09:08:55;17.67;;;9.05;;
41201;SDS011;26936;50.524;8.684;2023-03-01T09:11:21;15.98;;;9.20;;
41201;SDS011;26936;50.524;8.684;2023-03-01T09:13:47;14.02;;;8.48;;
41201;SDS011;26936;50.524;8.684;2023-03-01T09:16:14;16.50;;;9.20;;
41201;SDS011;26936;50.524;8.684;2023-03-01T09:18:41;14.07;;;8.73;;
41201;SDS011;26936;50.524;8.684;2023-03-01T09:21:08;15.07;;;8.70;;
41201;SDS011;26936;50.524;8.684;2023-03-01T09:23:38;15.55;;;9.30;;
41201;SDS011;26936;50.524;8.684;2023-03-01T09:26:06;14.27;;;9.30;;
41201;SDS011;26936;50.524;8.684;2023-03-01T09:28:36;12.43;;;8.25;;
41201;SDS011;26936;50.524;8.684;2023-03-01T09:31:02;17.85;;;9.45;;
41201;SDS011;26936;50.524;8.684;2023-03-01T09:33:28;14.65;;;8.55;;
41201;SDS011;26936;50.524;8.684;2023-03-01T09:36:02;13.07;;;8.88;;
41201;SDS011;26936;50.524;8.684;2023-03-01T09:38:29;13.70;;;9.02;;
41201;SDS011;26936;50.524;8.684;2023-03-01T09:40:55;14.48;;;8.38;;
41201;SDS011;26936;50.524;8.684;2023-03-01T09:46:38;15.75;;;8.80;;
41201;SDS011;26936;50.524;8.684;2023-03-01T09:49:29;11.82;;;8.43;;
41201;SDS011;26936;50.524;8.684;2023-03-01T09:52:00;12.32;;;8.32;;
41201;SDS011;26936;50.524;8.684;2023-03-01T09:54:34;12.55;;;8.65;;
41201;SDS011;26936;50.524;8.684;2023-03-01T09:57:09;12.80;;;8.63;;
41201;SDS011;26936;50.524;8.684;2023-03-01T09:59:46;10.90;;;8.55;;
41201;SDS011;26936;50.524;8.684;2023-03-01T10:05:31;13.07;;;8.10;;
41201;SDS011;26936;50.524;8.684;2023-03-01T10:08:06;11.43;;;7.82;;
41201;SDS011;26936;50.524;8.684;2023-03-01T10:11:01;11.70;;;8.30;;
41201;SDS011;26936;50.524;8.684;2023-03-01T10:13:37;12.00;;;8.07;;
41201;SDS011;26936;50.524;8.684;2023-03-01T10:16:12;12.18;;;8.70;;
41201;SDS011;26936;50.524;8.684;2023-03-01T10:18:41;12.60;;;7.85;;
41201;SDS011;26936;50.524;8.684;2023-03-01T10:21:13;12.93;;;8.07;;
41201;SDS011;26936;50.524;8.684;2023-03-01T10:23:41;11.68;;;7.80;;
41201;SDS011;26936;50.524;8.684;2023-03-01T10:31:35;13.48;;;7.60;;
41201;SDS011;26936;50.524;8.684;2023-03-01T10:34:17;11.23;;;7.60;;
41201;SDS011;26936;50.524;8.684;2023-03-01T10:36:47;9.77;;;7.30;;
41201;SDS011;26936;50.524;8.684;2023-03-01T10:39:20;13.75;;;7.38;;
41201;SDS011;26936;50.524;8.684;2023-03-01T10:42:01;12.40;;;7.57;;
41201;SDS011;26936;50.524;8.684;2023-03-01T10:44:36;11.40;;;7.47;;
41201;SDS011;26936;50.524;8.684;2023-03-01T10:47:13;10.40;;;7.55;;
41201;SDS011;26936;50.524;8.684;2023-03-01T10:50:01;11.60;;;8.00;;
41201;SDS011;26936;50.524;8.684;2023-03-01T10:52:30;13.25;;;7.45;;
41201;SDS011;26936;50.524;8.684;2023-03-01T10:57:38;10.88;;;7.50;;
41201;SDS011;26936;50.524;8.684;2023-03-01T11:00:22;15.27;;;7.90;;
41201;SDS011;26936;50.524;8.684;2023-03-01T11:05:25;12.43;;;7.47;;
41201;SDS011;26936;50.524;8.684;2023-03-01T11:07:56;10.18;;;7.10;;
41201;SDS011;26936;50.524;8.684;2023-03-01T11:10:33;10.82;;;7.47;;
41201;SDS011;26936;50.524;8.684;2023-03-01T11:13:07;10.93;;;7.63;;
41201;SDS011;26936;50.524;8.684;2023-03-01T11:15:42;11.63;;;6.60;;
41201;SDS011;26936;50.524;8.684;2023-03-01T11:18:26;10.93;;;7.05;;
41201;SDS011;26936;50.524;8.684;2023-03-01T11:20:54;12.10;;;7.00;;
41201;SDS011;26936;50.524;8.684;2023-03-01T11:23:20;9.95;;;6.45;;
41201;SDS011;26936;50.524;8.684;2023-03-01T11:25:49;9.02;;;6.90;;
41201;SDS011;26936;50.524;8.684;2023-03-01T11:28:19;13.32;;;7.95;;
41201;SDS011;26936;50.524;8.684;2023-03-01T11:33:34;11.13;;;7.15;;
41201;SDS011;26936;50.524;8.684;2023-03-01T11:36:31;12.32;;;7.45;;
41201;SDS011;26936;50.524;8.684;2023-03-01T11:39:03;11.20;;;7.32;;
41201;SDS011;26936;50.524;8.684;2023-03-01T11:41:45;11.48;;;6.97;;
41201;SDS011;26936;50.524;8.684;2023-03-01T11:44:18;11.40;;;7.13;;
41201;SDS011;26936;50.524;8.684;2023-03-01T11:47:03;13.00;;;7.57;;
41201;SDS011;26936;50.524;8.684;2023-03-01T11:52:46;11.50;;;7.33;;
41201;SDS011;26936;50.524;8.684;2023-03-01T11:55:30;11.65;;;7.63;;
41201;SDS011;26936;50.524;8.684;2023-03-01T11:58:23;11.63;;;6.93;;
41201;SDS011;26936;50.524;8.684;2023-03-01T12:01:08;12.38;;;7.20;;
41201;SDS011;26936;50.524;8.684;2023-03-01T12:03:57;13.98;;;8.00;;
41201;SDS011;26936;50.524;8.684;2023-03-01T12:06:50;11.68;;;7.68;;
41201;SDS011;26936;50.524;8.684;2023-03-01T12:12:36;13.13;;;7.20;;
41201;SDS011;26936;50.524;8.684;2023-03-01T12:15:33;14.50;;;7.43;;
41201;SDS011;26936;50.524;8.684;2023-03-01T12:18:23;10.98;;;7.47;;
41201;SDS011;26936;50.524;8.684;2023-03-01T12:20:58;9.98;;;6.55;;
41201;SDS011;26936;50.524;8.684;2023-03-01T12:29:16;11.43;;;7.53;;
41201;SDS011;26936;50.524;8.684;2023-03-01T12:34:56;12.10;;;7.57;;
41201;SDS011;26936;50.524;8.684;2023-03-01T12:38:33;12.52;;;7.43;;
41201;SDS011;26936;50.524;8.684;2023-03-01T12:49:08;13.63;;;7.75;;
41201;SDS011;26936;50.524;8.684;2023-03-01T12:54:38;13.90;;;7.70;;
41201;SDS011;26936;50.524;8.684;2023-03-01T12:57:01;12.63;;;7.60;;
41201;SDS011;26936;50.524;8.684;2023-03-01T13:02:32;11.85;;;7.82;;
41201;SDS011;26936;50.524;8.684;2023-03-01T13:07:44;14.98;;;7.95;;
41201;SDS011;26936;50.524;8.684;2023-03-01T13:10:27;12.27;;;7.38;;
41201;SDS011;26936;50.524;8.684;2023-03-01T13:13:03;15.75;;;7.85;;
41201;SDS011;26936;50.524;8.684;2023-03-01T13:15:43;12.25;;;7.80;;
41201;SDS011;26936;50.524;8.684;2023-03-01T13:23:12;15.88;;;7.97;;
41201;SDS011;26936;50.524;8.684;2023-03-01T13:31:07;14.23;;;7.35;;
41201;SDS011;26936;50.524;8.684;2023-03-01T13:33:50;12.95;;;7.45;;
41201;SDS011;26936;50.524;8.684;2023-03-01T13:44:29;12.35;;;7.25;;
41201;SDS011;26936;50.524;8.684;2023-03-01T13:54:56;13.77;;;7.50;;
41201;SDS011;26936;50.524;8.684;2023-03-01T13:57:24;11.38;;;6.65;;
41201;SDS011;26936;50.524;8.684;2023-03-01T13:59:53;14.73;;;7.50;;
41201;SDS011;26936;50.524;8.684;2023-03-01T14:02:18;11.95;;;6.97;;
41201;SDS011;26936;50.524;8.684;2023-03-01T14:04:44;12.33;;;7.47;;
41201;SDS011;26936;50.524;8.684;2023-03-01T14:07:22;11.95;;;6.88;;
41201;SDS011;26936;50.524;8.684;2023-03-01T14:09:55;17.27;;;7.07;;
41201;SDS011;26936;50.524;8.684;2023-03-01T14:15:15;10.57;;;6.63;;
41201;SDS011;26936;50.524;8.684;2023-03-01T14:17:50;12.57;;;7.18;;
41201;SDS011;26936;50.524;8.684;2023-03-01T14:20:40;13.52;;;7.13;;
41201;SDS011;26936;50.524;8.684;2023-03-01T14:23:12;11.70;;;7.53;;
41201;SDS011;26936;50.524;8.684;2023-03-01T14:25:46;18.35;;;7.55;;
41201;SDS011;26936;50.524;8.684;2023-03-01T14:28:17;15.25;;;7.82;;
41201;SDS011;26936;50.524;8.684;2023-03-01T14:30:52;13.13;;;6.93;;
41201;SDS011;26936;50.524;8.684;2023-03-01T14:33:37;11.30;;;6.68;;
41201;SDS011;26936;50.524;8.684;2023-03-01T14:36:08;12.98;;;6.93;;
41201;SDS011;26936;50.524;8.684;2023-03-01T14:38:35;10.93;;;6.75;;
41201;SDS011;26936;50.524;8.684;2023-03-01T14:41:09;12.85;;;7.07;;
41201;SDS011;26936;50.524;8.684;2023-03-01T14:43:37;10.45;;;6.45;;
41201;SDS011;26936;50.524;8.684;2023-03-01T14:46:05;11.77;;;6.55;;
41201;SDS011;26936;50.524;8.684;2023-03-01T14:48:31;13.17;;;7.70;;
41201;SDS011;26936;50.524;8.684;2023-03-01T14:50:57;12.38;;;6.47;;
41201;SDS011;26936;50.524;8.684;2023-03-01T14:53:24;15.27;;;7.53;;
41201;SDS011;26936;50.524;8.684;2023-03-01T14:55:52;11.20;;;6.38;;
41201;SDS011;26936;50.524;8.684;2023-03-01T14:58:20;11.23;;;5.93;;
41201;SDS011;26936;50.524;8.684;2023-03-01T15:00:52;11.90;;;6.47;;
41201;SDS011;26936;50.524;8.684;2023-03-01T15:06:03;11.30;;;6.13;;
41201;SDS011;26936;50.524;8.684;2023-03-01T15:08:30;10.38;;;5.95;;
41201;SDS011;26936;50.524;8.684;2023-03-01T15:11:16;10.23;;;5.93;;
41201;SDS011;26936;50.524;8.684;2023-03-01T15:13:47;10.82;;;5.97;;
41201;SDS011;26936;50.524;8.684;2023-03-01T15:16:13;10.90;;;5.72;;
41201;SDS011;26936;50.524;8.684;2023-03-01T15:18:51;10.27;;;5.53;;
41201;SDS011;26936;50.524;8.684;2023-03-01T15:21:21;10.48;;;5.50;;
41201;SDS011;26936;50.524;8.684;2023-03-01T15:23:53;10.88;;;5.85;;
41201;SDS011;26936;50.524;8.684;2023-03-01T15:26:22;11.07;;;5.70;;
41201;SDS011;26936;50.524;8.684;2023-03-01T15:29:10;8.82;;;5.57;;
41201;SDS011;26936;50.524;8.684;2023-03-01T15:31:42;9.52;;;5.28;;
41201;SDS011;26936;50.524;8.684;2023-03-01T15:34:30;8.85;;;5.30;;
41201;SDS011;26936;50.524;8.684;2023-03-01T15:36:56;8.95;;;5.68;;
41201;SDS011;26936;50.524;8.684;2023-03-01T15:42:02;13.23;;;5.70;;
41201;SDS011;26936;50.524;8.684;2023-03-01T15:44:30;9.52;;;5.35;;
41201;SDS011;26936;50.524;8.684;2023-03-01T15:46:57;10.88;;;5.60;;
41201;SDS011;26936;50.524;8.684;2023-03-01T15:49:35;11.75;;;6.20;;
41201;SDS011;26936;50.524;8.684;2023-03-01T15:52:03;10.23;;;5.43;;
41201;SDS011;26936;50.524;8.684;2023-03-01T15:54:29;11.23;;;5.93;;
41201;SDS011;26936;50.524;8.684;2023-03-01T15:56:54;9.57;;;5.97;;
41201;SDS011;26936;50.524;8.684;2023-03-01T15:59:20;15.82;;;5.97;;
41201;SDS011;26936;50.524;8.684;2023-03-01T16:01:47;10.32;;;6.20;;
41201;SDS011;26936;50.524;8.684;2023-03-01T16:04:13;12.23;;;5.68;;
41201;SDS011;26936;50.524;8.684;2023-03-01T16:06:52;10.23;;;5.97;;
41201;SDS011;26936;50.524;8.684;2023-03-01T16:09:22;10.18;;;5.72;;
41201;SDS011;26936;50.524;8.684;2023-03-01T16:11:50;12.35;;;6.28;;
41201;SDS011;26936;50.524;8.684;2023-03-01T16:14:17;10.30;;;5.40;;
41201;SDS011;26936;50.524;8.684;2023-03-01T16:16:43;11.07;;;6.18;;
41201;SDS011;26936;50.524;8.684;2023-03-01T16:19:09;10.23;;;6.05;;
41201;SDS011;26936;50.524;8.684;2023-03-01T16:21:35;9.95;;;5.60;;